Honaunau, HI

2:38 PM HST on September 19, 2014 (GMT -1000)
Captain Cook | Change Station
CLOSE
Current Station
Personal Weather Station
Location: Captain Cook, HI
Elevation: 915 ft
Nearby Weather Stations

Elev 915 ft 19.31 °N, 155.88 °W | Updated 7 minutes ago

Clear
Clear
78.7 °F
Feels Like 82 °F
N
2.0
Wind Variable Wind from North
Gusts 7.0 mph

Today
High -- | Low -- °F
--% Chance of Precip.
Yesterday
High -- | Low -- °F
Precip. -- in
6:11 AM 6:22 PM
Waning Crescent, 16% visible
Pressure 29.87 in
Visibility 10.0 miles
Clouds Clear
Heat Index 82 °F
Dew Point 72 °F
Humidity 79%
Rainfall 0.00 in
Snow Depth Not available.
UV 3.1 out of 12
Pollen Not available.
Air Quality Not available.
Flu Activity Not available.
METAR PHKO 192353Z 29008KT 10SM CLR 30/23 A2987 RMK AO2 SLP114 T03000228 10306 20283 58020

More Conditions Fewer Conditions

Pressure 29.87 in
Visibility 10.0 miles
Clouds Clear
Heat Index 82 °F
Dew Point 72 °F
Humidity 79%
Rainfall 0.00 in
Snow Depth Not available.
UV 3.1 out of 12
Pollen Not available.
Air Quality Not available.
Flu Activity Not available.
METAR PHKO 192353Z 29008KT 10SM CLR 30/23 A2987 RMK AO2 SLP114 T03000228 10306 20283 58020

More Conditions Fewer Conditions

10-Day Weather Forecast

Almanac

Astronomy

Sep. 19, 2014 Rise Set
Actual Time 6:11 AM HST 6:22 PM HST
Civil Twilight 5:49 AM HST 6:44 PM HST
Nautical Twilight 5:24 AM HST 7:09 PM HST
Astronomical Twilight 4:58 AM HST 7:35 PM HST
Moon 2:33 AM HST (9/19) 3:34 PM HST (9/19)
Length of Visible Light 12h 54m
Length of Day
12h 10m
Tomorrow will be 1m 6s shorter.
Waning Crescent, 16% of the Moon is Illuminated
Today
Waning Crescent
Sep 24
New
Oct 1
First Quarter
Oct 8
Full
Oct 15
Last Quarter

Today's Extremes

State Highs State Lows

Community

WunderPhotos

Upload Photos

1,754,744 photos uploaded!

WunderBlogs® & News

Nearby

Snow Depth

Station Depth Elevation
No new snow has been reported.

Earthquake Activity

City Distance Mag. Time & Date
No recent earthquake activity has been reported nearby.
Minimum magnitude displayed is 2.5.

Coastal Water Temperatures

Place Temperature
No Stations Reporting

Nearby Weather Stations